createdAt,value
2017-12-25T00:00:26.252Z,1007.8
2017-12-25T00:01:29.248Z,1007.7
2017-12-25T00:02:31.666Z,1007.6
2017-12-25T00:03:34.095Z,1007.7
2017-12-25T00:04:36.517Z,1007.7
2017-12-25T00:05:38.940Z,1007.6
2017-12-25T00:06:41.359Z,1007.7
2017-12-25T00:07:43.784Z,1007.7
2017-12-25T00:08:46.501Z,1007.6
2017-12-25T00:09:49.219Z,1007.5
2017-12-25T00:10:51.629Z,1007.7
2017-12-25T00:11:54.331Z,1007.7
2017-12-25T00:12:56.741Z,1007.7
2017-12-25T00:13:59.152Z,1007.3
2017-12-25T00:15:01.576Z,1007.5
2017-12-25T00:16:04.285Z,1007.6
2017-12-25T00:17:06.983Z,1007.3
2017-12-25T00:18:09.412Z,1007.5
2017-12-25T00:19:11.818Z,1007.6
2017-12-25T00:20:14.238Z,1007.6
2017-12-25T00:21:16.656Z,1007.5
2017-12-25T00:22:19.071Z,1007.6
2017-12-25T00:23:21.494Z,1007.5
2017-12-25T00:24:23.920Z,1007.6
2017-12-25T00:25:26.334Z,1007.7
2017-12-25T00:26:29.063Z,1007.7
2017-12-25T00:27:31.491Z,1007.5
2017-12-25T00:28:33.890Z,1007.5
2017-12-25T00:29:36.316Z,1007.6
2017-12-25T00:30:38.727Z,1007.6
2017-12-25T00:31:41.138Z,1007.6
2017-12-25T00:32:43.554Z,1007.5
2017-12-25T00:33:45.977Z,1007.6
2017-12-25T00:34:48.398Z,1007.6
2017-12-25T00:35:50.815Z,1007.5
2017-12-25T00:36:53.227Z,1007.6
2017-12-25T00:37:55.643Z,1007.6
2017-12-25T00:38:58.061Z,1007.6
2017-12-25T00:40:00.751Z,1007.5
2017-12-25T00:41:03.175Z,1007.5
2017-12-25T00:42:05.893Z,1007.5
2017-12-25T00:43:08.587Z,1007.5
2017-12-25T00:44:11.009Z,1007.5
2017-12-25T00:45:13.420Z,1007.4
2017-12-25T00:46:16.126Z,1007.5
2017-12-25T00:47:18.544Z,1007.6
2017-12-25T00:48:20.962Z,1007.5
2017-12-25T00:49:23.382Z,1007.5
2017-12-25T00:50:25.814Z,1007.5
2017-12-25T00:51:28.518Z,1007.5
2017-12-25T00:52:30.919Z,1007.6
2017-12-25T00:53:33.337Z,1007.6
2017-12-25T00:54:35.752Z,1007.5
2017-12-25T00:55:38.496Z,1007.6
2017-12-25T00:56:40.905Z,1007.5
2017-12-25T00:57:43.318Z,1007.6
2017-12-25T00:58:45.735Z,1007.6
2017-12-25T00:59:48.163Z,1007.6
2017-12-25T01:00:50.589Z,1007.6
2017-12-25T01:01:52.999Z,1007.7
2017-12-25T01:02:55.423Z,1007.7
2017-12-25T01:03:57.846Z,1007.8
2017-12-25T01:05:00.257Z,1007.8
2017-12-25T01:06:02.669Z,1007.7
2017-12-25T01:07:05.099Z,1007.8
2017-12-25T01:08:07.510Z,1007.8
2017-12-25T01:09:09.924Z,1007.8
2017-12-25T01:10:12.335Z,1007.8
2017-12-25T01:11:14.755Z,1007.8
2017-12-25T01:12:17.169Z,1007.8
2017-12-25T01:13:19.595Z,1007.9
2017-12-25T01:14:21.999Z,1007.8
2017-12-25T01:15:24.414Z,1007.7
2017-12-25T01:16:26.841Z,1007.8
2017-12-25T01:17:29.526Z,1007.8
2017-12-25T01:18:31.944Z,1007.7
2017-12-25T01:19:34.368Z,1007.8
2017-12-25T01:20:37.111Z,1007.8
2017-12-25T01:21:40.094Z,1007.8
2017-12-25T01:22:42.511Z,1007.8
2017-12-25T01:23:44.916Z,1007.8
2017-12-25T01:24:47.345Z,1007.9
2017-12-25T01:25:49.755Z,1007.9
2017-12-25T01:26:52.177Z,1007.9
2017-12-25T01:27:54.601Z,1007.8
2017-12-25T01:28:57.015Z,1008
2017-12-25T01:29:59.724Z,1007.9
2017-12-25T01:31:02.146Z,1007.9
2017-12-25T01:32:04.567Z,1007.9
2017-12-25T01:33:06.976Z,1007.8
2017-12-25T01:34:09.392Z,1007.9
2017-12-25T01:35:11.811Z,1007.8
2017-12-25T01:36:14.229Z,1007.9
2017-12-25T01:37:16.639Z,1007.8
2017-12-25T01:38:19.066Z,1007.9
2017-12-25T01:39:21.470Z,1007.9
2017-12-25T01:40:23.904Z,1007.9
2017-12-25T01:41:26.319Z,1007.9
2017-12-25T01:42:28.733Z,1007.8
2017-12-25T01:43:31.178Z,1007.7
2017-12-25T01:44:33.563Z,1007.7
2017-12-25T01:45:35.974Z,1007.8
2017-12-25T01:46:38.387Z,1007.8
2017-12-25T01:47:40.804Z,1007.8
2017-12-25T01:48:43.213Z,1007.8
2017-12-25T01:49:45.644Z,1007.7
2017-12-25T01:50:48.048Z,1007.7
2017-12-25T01:51:50.462Z,1007.8
2017-12-25T01:52:52.882Z,1007.7
2017-12-25T01:53:55.296Z,1007.7
2017-12-25T01:54:57.720Z,1007.6
2017-12-25T01:56:00.144Z,1007.7
2017-12-25T01:57:02.554Z,1007.7
2017-12-25T01:58:04.980Z,1007.7
2017-12-25T01:59:07.398Z,1007.7
2017-12-25T02:00:09.814Z,1007.7
2017-12-25T02:01:12.224Z,1007.7
2017-12-25T02:02:14.638Z,1007.7
2017-12-25T02:03:17.058Z,1007.6
2017-12-25T02:04:19.462Z,1007.7
2017-12-25T02:05:21.871Z,1007.6
2017-12-25T02:06:24.294Z,1007.7
2017-12-25T02:07:27.001Z,1007.6
2017-12-25T02:08:29.697Z,1007.7
2017-12-25T02:09:32.112Z,1007.7
2017-12-25T02:10:34.533Z,1007.7
2017-12-25T02:11:36.953Z,1007.6
2017-12-25T02:12:39.375Z,1007.6
2017-12-25T02:13:41.775Z,1007.6
2017-12-25T02:14:44.193Z,1007.6
2017-12-25T02:15:46.611Z,1007.6
2017-12-25T02:16:49.309Z,1007.6
2017-12-25T02:17:51.722Z,1007.6
2017-12-25T02:18:54.140Z,1007.5
2017-12-25T02:19:56.840Z,1007.6
2017-12-25T02:20:59.539Z,1007.5
2017-12-25T02:22:02.237Z,1007.6
2017-12-25T02:23:04.647Z,1007.5
2017-12-25T02:24:07.075Z,1007.5
2017-12-25T02:25:09.761Z,1007.5
2017-12-25T02:26:12.178Z,1007.5
2017-12-25T02:27:14.590Z,1007.4
2017-12-25T02:28:16.997Z,1007.4
2017-12-25T02:29:19.696Z,1007.5
2017-12-25T02:30:22.106Z,1007.6
2017-12-25T02:31:24.529Z,1007.5
2017-12-25T02:32:27.233Z,1007.5
2017-12-25T02:33:29.657Z,1007.5
2017-12-25T02:34:32.068Z,1007.4
2017-12-25T02:35:35.354Z,1007.5
2017-12-25T02:36:37.765Z,1007.5
2017-12-25T02:37:40.193Z,1007.5
2017-12-25T02:38:42.602Z,1007.5
2017-12-25T02:39:45.012Z,1007.6
2017-12-25T02:40:47.434Z,1007.6
2017-12-25T02:41:49.850Z,1007.5
2017-12-25T02:42:52.269Z,1007.5
2017-12-25T02:43:54.694Z,1007.5
2017-12-25T02:44:57.381Z,1007.5
2017-12-25T02:45:59.802Z,1007.6
2017-12-25T02:47:02.515Z,1007.5
2017-12-25T02:48:04.928Z,1007.5
2017-12-25T02:49:07.350Z,1007.5
2017-12-25T02:50:09.759Z,1007.5
2017-12-25T02:51:12.447Z,1007.5
2017-12-25T02:52:14.866Z,1007.5
2017-12-25T02:53:17.276Z,1007.5
2017-12-25T02:54:19.692Z,1007.5
2017-12-25T02:55:22.116Z,1007.5
2017-12-25T02:56:24.523Z,1007.6
2017-12-25T02:57:26.940Z,1007.5
2017-12-25T02:58:29.671Z,1007.5
2017-12-25T02:59:32.082Z,1007.4
2017-12-25T03:00:34.811Z,1007.4
2017-12-25T03:01:37.232Z,1007.4
2017-12-25T03:02:39.674Z,1007.4
2017-12-25T03:03:42.086Z,1007.4
2017-12-25T03:04:44.497Z,1007.4
2017-12-25T03:05:46.914Z,1007.4
2017-12-25T03:06:49.324Z,1007.5
2017-12-25T03:07:51.746Z,1007.4
2017-12-25T03:08:54.440Z,1007.4
2017-12-25T03:09:56.861Z,1007.4
2017-12-25T03:10:59.290Z,1007.4
2017-12-25T03:12:01.715Z,1007.5
2017-12-25T03:13:04.126Z,1007.4
2017-12-25T03:14:06.541Z,1007.4
2017-12-25T03:15:09.246Z,1007.4
2017-12-25T03:16:11.941Z,1007.4
2017-12-25T03:17:14.359Z,1007.4
2017-12-25T03:18:16.771Z,1007.4
2017-12-25T03:19:19.185Z,1007.3
2017-12-25T03:20:21.669Z,1007.3
2017-12-25T03:21:24.438Z,1007.3
2017-12-25T03:22:27.131Z,1007.3
2017-12-25T03:23:29.885Z,1007.3
2017-12-25T03:24:32.299Z,1007.3
2017-12-25T03:25:34.712Z,1007.3
2017-12-25T03:26:37.135Z,1007.2
2017-12-25T03:27:39.544Z,1007.2
2017-12-25T03:28:41.957Z,1007.2
2017-12-25T03:29:44.665Z,1007
2017-12-25T03:30:47.070Z,1007.2
2017-12-25T03:31:49.784Z,1007.1
2017-12-25T03:32:52.507Z,1007.1
2017-12-25T03:33:54.920Z,1007.2
2017-12-25T03:34:57.698Z,1007.2
2017-12-25T03:36:00.104Z,1007.1
2017-12-25T03:37:02.610Z,1007.2
2017-12-25T03:38:05.012Z,1007.2
2017-12-25T03:39:07.434Z,1007.1
2017-12-25T03:40:09.848Z,1007.1
2017-12-25T03:41:12.349Z,1007.1
2017-12-25T03:42:14.770Z,1007.1
2017-12-25T03:43:17.177Z,1007.1
2017-12-25T03:44:19.671Z,1007
2017-12-25T03:45:22.092Z,1007.2
2017-12-25T03:46:24.551Z,1007.2
2017-12-25T03:47:26.961Z,1007.1
2017-12-25T03:48:29.393Z,1007.2
2017-12-25T03:49:31.808Z,1007.2
2017-12-25T03:50:34.219Z,1007.2
2017-12-25T03:51:37.299Z,1007.2
2017-12-25T03:52:39.711Z,1007.2
2017-12-25T03:53:42.139Z,1007.2
2017-12-25T03:54:44.569Z,1007.2
2017-12-25T03:55:46.974Z,1007.1
2017-12-25T03:56:49.396Z,1007.1
2017-12-25T03:57:51.811Z,1007.1
2017-12-25T03:58:54.227Z,1007.2
2017-12-25T03:59:56.643Z,1007.1
2017-12-25T04:00:59.076Z,1007.1
2017-12-25T04:02:01.488Z,1007.2
2017-12-25T04:03:03.898Z,1007.2
2017-12-25T04:04:06.316Z,1007.1
2017-12-25T04:05:08.737Z,1007.1
2017-12-25T04:06:11.432Z,1007
2017-12-25T04:07:13.853Z,1007
2017-12-25T04:08:16.259Z,1007.1
2017-12-25T04:09:18.674Z,1007.1
2017-12-25T04:10:21.101Z,1007.1
2017-12-25T04:11:23.791Z,1007.2
2017-12-25T04:12:26.476Z,1007.1
2017-12-25T04:13:29.178Z,1007
2017-12-25T04:14:31.881Z,1007.1
2017-12-25T04:15:34.304Z,1007.1
2017-12-25T04:16:36.716Z,1007.1
2017-12-25T04:17:39.126Z,1007.1
2017-12-25T04:18:41.544Z,1007.1
2017-12-25T04:19:43.972Z,1007.1
2017-12-25T04:20:46.388Z,1007.1
2017-12-25T04:21:48.808Z,1007.2
2017-12-25T04:22:51.224Z,1007.2
2017-12-25T04:23:53.645Z,1007.2
2017-12-25T04:24:56.060Z,1007.1
2017-12-25T04:25:58.488Z,1007
2017-12-25T04:27:01.176Z,1007.1
2017-12-25T04:28:03.590Z,1007.1
2017-12-25T04:29:06.006Z,1007.1
2017-12-25T04:30:08.422Z,1007.2
2017-12-25T04:31:10.841Z,1007.1
2017-12-25T04:32:13.255Z,1007.2
2017-12-25T04:33:15.672Z,1007.2
2017-12-25T04:34:18.104Z,1007.1
2017-12-25T04:35:20.529Z,1007.1
2017-12-25T04:36:22.937Z,1007.1
2017-12-25T04:37:25.353Z,1007.1
2017-12-25T04:38:27.774Z,1007.2
2017-12-25T04:39:30.473Z,1007.1
2017-12-25T04:40:32.888Z,1007
2017-12-25T04:41:35.296Z,1007.1
2017-12-25T04:42:37.710Z,1007.1
2017-12-25T04:43:40.138Z,1007
2017-12-25T04:44:42.541Z,1007.1
2017-12-25T04:45:44.972Z,1007.1
2017-12-25T04:46:47.406Z,1007.1
2017-12-25T04:47:49.810Z,1007.1
2017-12-25T04:48:52.225Z,1007.1
2017-12-25T04:49:54.641Z,1007
2017-12-25T04:50:57.058Z,1007.1
2017-12-25T04:51:59.480Z,1007
2017-12-25T04:53:01.884Z,1007
2017-12-25T04:54:04.297Z,1006.9
2017-12-25T04:55:06.713Z,1007
2017-12-25T04:56:09.135Z,1007
2017-12-25T04:57:11.548Z,1007
2017-12-25T04:58:14.247Z,1006.9
2017-12-25T04:59:16.666Z,1007
2017-12-25T05:00:19.082Z,1007
2017-12-25T05:01:21.496Z,1007
2017-12-25T05:02:23.911Z,1006.9
2017-12-25T05:03:26.327Z,1006.9
2017-12-25T05:04:28.744Z,1007
2017-12-25T05:05:31.157Z,1006.9
2017-12-25T05:06:33.847Z,1006.9
2017-12-25T05:07:36.282Z,1006.8
2017-12-25T05:08:39.036Z,1006.8
2017-12-25T05:09:41.439Z,1006.9
2017-12-25T05:10:43.861Z,1006.8
2017-12-25T05:11:46.278Z,1006.8
2017-12-25T05:12:48.983Z,1006.9
2017-12-25T05:13:51.711Z,1006.9
2017-12-25T05:14:54.415Z,1007
2017-12-25T05:15:57.119Z,1007
2017-12-25T05:16:59.833Z,1007.1
2017-12-25T05:18:02.252Z,1006.9
2017-12-25T05:19:04.669Z,1007
2017-12-25T05:20:07.076Z,1007
2017-12-25T05:21:09.503Z,1007
2017-12-25T05:22:11.936Z,1006.9
2017-12-25T05:23:14.346Z,1007
2017-12-25T05:24:16.753Z,1006.9
2017-12-25T05:25:19.186Z,1006.9
2017-12-25T05:26:21.910Z,1006.9
2017-12-25T05:27:24.626Z,1006.9
2017-12-25T05:28:27.333Z,1007
2017-12-25T05:29:29.755Z,1006.8
2017-12-25T05:30:32.177Z,1006.9
2017-12-25T05:31:34.589Z,1006.9
2017-12-25T05:32:36.999Z,1006.9
2017-12-25T05:33:39.430Z,1007
2017-12-25T05:34:41.864Z,1007
2017-12-25T05:35:44.274Z,1006.9
2017-12-25T05:36:46.688Z,1006.8
2017-12-25T05:37:49.109Z,1006.9
2017-12-25T05:38:51.520Z,1006.8
2017-12-25T05:39:53.951Z,1006.8
2017-12-25T05:40:56.666Z,1006.8
2017-12-25T05:41:59.082Z,1006.8
2017-12-25T05:43:01.508Z,1006.8
2017-12-25T05:44:03.914Z,1006.8
2017-12-25T05:45:06.344Z,1006.7
2017-12-25T05:46:08.779Z,1006.7
2017-12-25T05:47:11.202Z,1006.7
2017-12-25T05:48:13.898Z,1006.6
2017-12-25T05:49:16.314Z,1006.7
2017-12-25T05:50:18.721Z,1006.7
2017-12-25T05:51:21.151Z,1006.7
2017-12-25T05:52:23.837Z,1006.6
2017-12-25T05:53:26.260Z,1006.7
2017-12-25T05:54:28.686Z,1006.6
2017-12-25T05:55:31.093Z,1006.7
2017-12-25T05:56:33.533Z,1006.7
2017-12-25T05:57:35.956Z,1006.7
2017-12-25T05:58:38.666Z,1006.6
2017-12-25T05:59:41.091Z,1006.7
2017-12-25T06:00:43.502Z,1006.6
2017-12-25T06:01:45.910Z,1006.6
2017-12-25T06:02:48.319Z,1006.6
2017-12-25T06:03:51.023Z,1006.6
2017-12-25T06:04:53.474Z,1006.7
2017-12-25T06:05:55.879Z,1006.6
2017-12-25T06:06:58.298Z,1006.6
2017-12-25T06:08:00.726Z,1006.6
2017-12-25T06:09:03.145Z,1006.6
2017-12-25T06:10:05.575Z,1006.6
2017-12-25T06:11:08.290Z,1006.5
2017-12-25T06:12:10.701Z,1006.6
2017-12-25T06:13:13.121Z,1006.7
2017-12-25T06:14:15.553Z,1006.6
2017-12-25T06:15:17.965Z,1006.5
2017-12-25T06:16:20.423Z,1006.5
2017-12-25T06:17:23.120Z,1006.6
2017-12-25T06:18:25.527Z,1006.6
2017-12-25T06:19:27.953Z,1006.5
2017-12-25T06:20:30.358Z,1006.5
2017-12-25T06:21:33.086Z,1006.6
2017-12-25T06:22:35.503Z,1006.6
2017-12-25T06:23:37.910Z,1006.4
2017-12-25T06:24:40.330Z,1006.4
2017-12-25T06:25:42.756Z,1006.5
2017-12-25T06:26:45.165Z,1006.4
2017-12-25T06:27:47.578Z,1006.5
2017-12-25T06:28:49.995Z,1006.5
2017-12-25T06:29:52.691Z,1006.6
2017-12-25T06:30:55.389Z,1006.5
2017-12-25T06:31:57.800Z,1006.5
2017-12-25T06:33:00.228Z,1006.5
2017-12-25T06:34:02.646Z,1006.5
2017-12-25T06:35:05.057Z,1006.6
2017-12-25T06:36:07.466Z,1006.5
2017-12-25T06:37:10.167Z,1006.6
2017-12-25T06:38:12.581Z,1006.4
2017-12-25T06:39:14.998Z,1006.4
2017-12-25T06:40:17.404Z,1006.4
2017-12-25T06:41:19.818Z,1006.5
2017-12-25T06:42:22.250Z,1006.4
2017-12-25T06:43:24.665Z,1006.5
2017-12-25T06:44:27.068Z,1006.4
2017-12-25T06:45:29.479Z,1006.5
2017-12-25T06:46:31.882Z,1006.5
2017-12-25T06:47:34.315Z,1006.4
2017-12-25T06:48:36.733Z,1006.4
2017-12-25T06:49:39.131Z,1006.5
2017-12-25T06:50:41.552Z,1006.4
2017-12-25T06:51:43.974Z,1006.5
2017-12-25T06:52:46.390Z,1006.4
2017-12-25T06:53:48.815Z,1006.5
2017-12-25T06:54:51.229Z,1006.5
2017-12-25T06:55:53.635Z,1006.4
2017-12-25T06:56:56.060Z,1006.4
2017-12-25T06:57:58.464Z,1006.5
2017-12-25T06:59:00.878Z,1006.5
2017-12-25T07:00:03.294Z,1006.5
2017-12-25T07:01:05.719Z,1006.6
2017-12-25T07:02:08.132Z,1006.5
2017-12-25T07:03:10.554Z,1006.5
2017-12-25T07:04:12.978Z,1006.5
2017-12-25T07:05:15.387Z,1006.5
2017-12-25T07:06:17.811Z,1006.4
2017-12-25T07:07:20.521Z,1006.5
2017-12-25T07:08:22.988Z,1006.5
2017-12-25T07:09:25.948Z,1006.6
2017-12-25T07:10:28.361Z,1006.5
2017-12-25T07:11:31.799Z,1006.6
2017-12-25T07:12:34.510Z,1006.4
2017-12-25T07:13:37.218Z,1006.5
2017-12-25T07:14:39.639Z,1006.5
2017-12-25T07:15:42.046Z,1006.6
2017-12-25T07:16:44.465Z,1006.5
2017-12-25T07:17:46.892Z,1006.6
2017-12-25T07:18:49.299Z,1006.6
2017-12-25T07:19:52.012Z,1006.5
2017-12-25T07:20:54.431Z,1006.5
2017-12-25T07:21:56.843Z,1006.6
2017-12-25T07:22:59.278Z,1006.5
2017-12-25T07:24:01.693Z,1006.5
2017-12-25T07:25:04.099Z,1006.4
2017-12-25T07:26:06.524Z,1006.6
2017-12-25T07:27:08.941Z,1006.5
2017-12-25T07:28:11.637Z,1006.5
2017-12-25T07:29:14.047Z,1006.5
2017-12-25T07:30:16.504Z,1006.5
2017-12-25T07:31:18.907Z,1006.5
2017-12-25T07:32:21.322Z,1006.5
2017-12-25T07:33:23.744Z,1006.5
2017-12-25T07:34:26.162Z,1006.5
2017-12-25T07:35:29.160Z,1006.5
2017-12-25T07:36:31.575Z,1006.5
2017-12-25T07:37:33.980Z,1006.5
2017-12-25T07:38:36.676Z,1006.5
2017-12-25T07:39:39.100Z,1006.5
2017-12-25T07:40:41.529Z,1006.5
2017-12-25T07:41:43.946Z,1006.5
2017-12-25T07:42:46.657Z,1006.6
2017-12-25T07:43:49.071Z,1006.5
2017-12-25T07:44:51.507Z,1006.5
2017-12-25T07:45:53.954Z,1006.5
2017-12-25T07:46:56.372Z,1006.5
2017-12-25T07:47:59.107Z,1006.5
2017-12-25T07:49:01.532Z,1006.5
2017-12-25T07:50:03.951Z,1006.5
2017-12-25T07:51:06.400Z,1006.5
2017-12-25T07:52:08.857Z,1006.5
2017-12-25T07:53:11.268Z,1006.4
2017-12-25T07:54:13.680Z,1006.5
2017-12-25T07:55:16.664Z,1006.5
2017-12-25T07:56:19.080Z,1006.5
2017-12-25T07:57:21.796Z,1006.5
2017-12-25T07:58:24.208Z,1006.5
2017-12-25T07:59:26.626Z,1006.5
2017-12-25T08:00:29.052Z,1006.4
2017-12-25T08:01:31.581Z,1006.4
2017-12-25T08:02:33.961Z,1006.5
2017-12-25T08:03:36.361Z,1006.4
2017-12-25T08:04:38.786Z,1006.5
2017-12-25T08:05:41.196Z,1006.4
2017-12-25T08:06:43.612Z,1006.5
2017-12-25T08:07:46.029Z,1006.5
2017-12-25T08:08:48.448Z,1006.5
2017-12-25T08:09:50.870Z,1006.4
2017-12-25T08:10:53.297Z,1006.5
2017-12-25T08:11:55.705Z,1006.5
2017-12-25T08:12:58.424Z,1006.5
2017-12-25T08:14:00.845Z,1006.5
2017-12-25T08:15:03.536Z,1006.5
2017-12-25T08:16:06.248Z,1006.5
2017-12-25T08:17:08.670Z,1006.5
2017-12-25T08:18:12.098Z,1006.5
2017-12-25T08:19:14.512Z,1006.5
2017-12-25T08:20:16.920Z,1006.5
2017-12-25T08:21:19.331Z,1006.5
2017-12-25T08:22:23.820Z,1006.5
2017-12-25T08:23:31.756Z,1006.5
2017-12-25T08:24:39.921Z,1006.5
2017-12-25T08:25:47.913Z,1006.5
2017-12-25T08:26:52.571Z,1006.5
2017-12-25T08:28:00.442Z,1006.5
2017-12-25T08:29:05.926Z,1006.4
2017-12-25T08:30:08.338Z,1006.5
2017-12-25T08:31:10.751Z,1006.5
2017-12-25T08:32:13.170Z,1006.5
2017-12-25T08:33:15.583Z,1006.5
2017-12-25T08:34:17.996Z,1006.5
2017-12-25T08:35:20.418Z,1006.6
2017-12-25T08:36:23.108Z,1006.5
2017-12-25T08:37:25.541Z,1006.5
2017-12-25T08:38:27.960Z,1006.5
2017-12-25T08:39:30.382Z,1006.5
2017-12-25T08:40:33.135Z,1006.5
2017-12-25T08:41:36.452Z,1006.5
2017-12-25T08:42:38.875Z,1006.5
2017-12-25T08:43:41.578Z,1006.5
2017-12-25T08:44:44.043Z,1006.5
2017-12-25T08:45:46.466Z,1006.4
2017-12-25T08:46:48.901Z,1006.5
2017-12-25T08:47:51.323Z,1006.4
2017-12-25T08:48:54.239Z,1006.4
2017-12-25T08:49:57.514Z,1006.4
2017-12-25T08:50:59.925Z,1006.4
2017-12-25T08:52:02.642Z,1006.4
2017-12-25T08:53:05.339Z,1006.5
2017-12-25T08:54:07.769Z,1006.4
2017-12-25T08:55:10.183Z,1006.5
2017-12-25T08:56:12.631Z,1006.4
2017-12-25T08:57:15.271Z,1006.4
2017-12-25T08:58:18.399Z,1006.4
2017-12-25T08:59:21.538Z,1006.5
2017-12-25T09:00:23.957Z,1006.4
2017-12-25T09:01:26.364Z,1006.4
2017-12-25T09:02:28.773Z,1006.5
2017-12-25T09:03:31.197Z,1006.4
2017-12-25T09:04:33.611Z,1006.4
2017-12-25T09:05:36.022Z,1006.4
2017-12-25T09:06:38.723Z,1006.4
2017-12-25T09:07:41.343Z,1006.4
2017-12-25T09:08:43.759Z,1006.4
2017-12-25T09:09:46.190Z,1006.3
2017-12-25T09:10:48.589Z,1006.4
2017-12-25T09:11:51.023Z,1006.3
2017-12-25T09:12:53.430Z,1006.4
2017-12-25T09:13:55.883Z,1006.3
2017-12-25T09:14:58.290Z,1006.3
2017-12-25T09:16:00.710Z,1006.3
2017-12-25T09:17:03.127Z,1006.3
2017-12-25T09:18:05.546Z,1006.4
2017-12-25T09:19:08.555Z,1006.5
2017-12-25T09:20:10.985Z,1006.4
2017-12-25T09:21:13.403Z,1006.5
2017-12-25T09:22:15.816Z,1006.5
2017-12-25T09:23:18.516Z,1006.4
2017-12-25T09:24:20.947Z,1006.4
2017-12-25T09:25:23.371Z,1006.5
2017-12-25T09:26:25.812Z,1006.4
2017-12-25T09:27:28.262Z,1006.5
2017-12-25T09:28:30.704Z,1006.5
2017-12-25T09:29:33.150Z,1006.5
2017-12-25T09:30:35.604Z,1006.5
2017-12-25T09:31:38.042Z,1006.6
2017-12-25T09:32:40.498Z,1006.5
2017-12-25T09:33:42.940Z,1006.6
2017-12-25T09:34:45.370Z,1006.6
2017-12-25T09:35:47.809Z,1006.5
2017-12-25T09:36:50.548Z,1006.4
2017-12-25T09:37:52.975Z,1006.5
2017-12-25T09:38:55.423Z,1006.5
2017-12-25T09:39:58.420Z,1006.5
2017-12-25T09:41:00.872Z,1006.6
2017-12-25T09:42:03.316Z,1006.5
2017-12-25T09:43:06.068Z,1006.6
2017-12-25T09:44:08.495Z,1006.5
2017-12-25T09:45:10.938Z,1006.6
2017-12-25T09:46:13.369Z,1006.5
2017-12-25T09:47:15.813Z,1006.5
2017-12-25T09:48:18.242Z,1006.4
2017-12-25T09:49:20.660Z,1006.5
2017-12-25T09:50:23.101Z,1006.6
2017-12-25T09:51:25.834Z,1006.5
2017-12-25T09:52:28.564Z,1006.5
2017-12-25T09:53:31.018Z,1006.5
2017-12-25T09:54:33.472Z,1006.5
2017-12-25T09:55:35.921Z,1006.5
2017-12-25T09:56:38.347Z,1006.3
2017-12-25T09:57:41.068Z,1006.4
2017-12-25T09:58:43.820Z,1006.4
2017-12-25T09:59:46.558Z,1006.4
2017-12-25T10:00:49.038Z,1006.3
2017-12-25T10:01:51.453Z,1006.4
2017-12-25T10:02:54.172Z,1006.4
2017-12-25T10:03:56.608Z,1006.3
2017-12-25T10:04:59.044Z,1006.4
2017-12-25T10:06:01.497Z,1006.3
2017-12-25T10:07:03.909Z,1006.3
2017-12-25T10:08:06.341Z,1006.3
2017-12-25T10:09:08.786Z,1006.2
2017-12-25T10:10:11.526Z,1006.4
2017-12-25T10:11:13.969Z,1006.4
2017-12-25T10:12:16.390Z,1006.3
2017-12-25T10:13:18.828Z,1006.3
2017-12-25T10:14:21.238Z,1006.3
2017-12-25T10:15:23.677Z,1006.4
2017-12-25T10:16:26.123Z,1006.3
2017-12-25T10:17:28.874Z,1006.3
2017-12-25T10:18:31.322Z,1006.3
2017-12-25T10:19:33.768Z,1006.3
2017-12-25T10:20:36.215Z,1006.2
2017-12-25T10:21:38.658Z,1006.3
2017-12-25T10:22:41.123Z,1006.3
2017-12-25T10:23:43.561Z,1006.2
2017-12-25T10:24:46.007Z,1006.2
2017-12-25T10:25:48.444Z,1006.2
2017-12-25T10:26:50.897Z,1006.1
2017-12-25T10:27:53.320Z,1006.2
2017-12-25T10:28:56.059Z,1006.1
2017-12-25T10:29:58.703Z,1006.1
2017-12-25T10:31:01.151Z,1006.1
2017-12-25T10:32:03.627Z,1006.1
2017-12-25T10:33:06.376Z,1006
2017-12-25T10:34:09.035Z,1006.1
2017-12-25T10:35:15.955Z,1006.1
2017-12-25T10:36:18.899Z,1006.1
2017-12-25T10:37:22.653Z,1006.1
2017-12-25T10:38:25.273Z,1006.1
2017-12-25T10:39:27.796Z,1006.1
2017-12-25T10:40:30.265Z,1006.2
2017-12-25T10:41:32.718Z,1006.1
2017-12-25T10:42:35.155Z,1006.1
2017-12-25T10:43:37.591Z,1006
2017-12-25T10:44:40.036Z,1006.1
2017-12-25T10:45:42.472Z,1006.2
2017-12-25T10:46:44.928Z,1006.1
2017-12-25T10:47:47.380Z,1006
2017-12-25T10:48:49.805Z,1006.1
2017-12-25T10:49:52.254Z,1006.1
2017-12-25T10:50:54.687Z,1006
2017-12-25T10:51:57.122Z,1006
2017-12-25T10:52:59.553Z,1006
2017-12-25T10:54:01.982Z,1006
2017-12-25T10:55:04.437Z,1006.1
2017-12-25T10:56:06.864Z,1006.1
2017-12-25T10:57:09.560Z,1006.1
2017-12-25T10:58:11.978Z,1006
2017-12-25T10:59:14.387Z,1006
2017-12-25T11:00:16.816Z,1006
2017-12-25T11:01:19.234Z,1006
2017-12-25T11:02:21.922Z,1006
2017-12-25T11:03:24.339Z,1006
2017-12-25T11:04:26.760Z,1006
2017-12-25T11:05:29.183Z,1006
2017-12-25T11:06:31.888Z,1006
2017-12-25T11:07:34.302Z,1006
2017-12-25T11:08:36.718Z,1006
2017-12-25T11:09:39.147Z,1005.9
2017-12-25T11:10:41.560Z,1005.9
2017-12-25T11:11:44.255Z,1005.9
2017-12-25T11:12:46.671Z,1005.9
2017-12-25T11:13:49.089Z,1005.9
2017-12-25T11:14:51.516Z,1005.9
2017-12-25T11:15:54.227Z,1005.8
2017-12-25T11:16:56.639Z,1005.9
2017-12-25T11:17:59.339Z,1005.8
2017-12-25T11:19:01.763Z,1005.8
2017-12-25T11:20:04.179Z,1005.8
2017-12-25T11:21:06.596Z,1005.8
2017-12-25T11:22:09.007Z,1005.8
2017-12-25T11:23:11.421Z,1005.8
2017-12-25T11:24:13.852Z,1005.8
2017-12-25T11:25:16.273Z,1005.8
2017-12-25T11:26:18.675Z,1005.7
2017-12-25T11:27:21.085Z,1005.7
2017-12-25T11:28:23.503Z,1005.8
2017-12-25T11:29:25.920Z,1005.8
2017-12-25T11:30:28.332Z,1005.8
2017-12-25T11:31:30.752Z,1005.7
2017-12-25T11:32:33.161Z,1005.8
2017-12-25T11:33:35.902Z,1005.6
2017-12-25T11:34:38.356Z,1005.7
2017-12-25T11:35:40.763Z,1005.7
2017-12-25T11:36:43.179Z,1005.6
2017-12-25T11:37:45.601Z,1005.7
2017-12-25T11:38:48.017Z,1005.7
2017-12-25T11:39:50.437Z,1005.7
2017-12-25T11:40:52.842Z,1005.7
2017-12-25T11:41:55.558Z,1005.6
2017-12-25T11:42:57.978Z,1005.6
2017-12-25T11:44:00.394Z,1005.7
2017-12-25T11:45:02.807Z,1005.6
2017-12-25T11:46:05.226Z,1005.7
2017-12-25T11:47:07.633Z,1005.7
2017-12-25T11:48:10.070Z,1005.6
2017-12-25T11:49:12.485Z,1005.6
2017-12-25T11:50:14.894Z,1005.6
2017-12-25T11:51:17.321Z,1005.6
2017-12-25T11:52:19.733Z,1005.6
2017-12-25T11:53:22.148Z,1005.6
2017-12-25T11:54:24.850Z,1005.6
2017-12-25T11:55:27.269Z,1005.5
2017-12-25T11:56:29.686Z,1005.4
2017-12-25T11:57:32.092Z,1005.4
2017-12-25T11:58:34.503Z,1005.4
2017-12-25T11:59:36.932Z,1005.4
2017-12-25T12:00:39.342Z,1005.4
2017-12-25T12:01:41.762Z,1005.3
2017-12-25T12:02:44.172Z,1005.4
2017-12-25T12:03:46.593Z,1005.3
2017-12-25T12:04:49.291Z,1005.3
2017-12-25T12:05:51.706Z,1005.4
2017-12-25T12:06:54.396Z,1005.3
2017-12-25T12:07:56.818Z,1005.4
2017-12-25T12:08:59.237Z,1005.3
2017-12-25T12:10:01.654Z,1005.3
2017-12-25T12:11:04.665Z,1005.3
2017-12-25T12:12:07.071Z,1005.3
2017-12-25T12:13:09.778Z,1005.3
2017-12-25T12:14:12.205Z,1005.3
2017-12-25T12:15:14.891Z,1005.4
2017-12-25T12:16:17.305Z,1005.2
2017-12-25T12:17:20.006Z,1005.3
2017-12-25T12:18:22.425Z,1005.3
2017-12-25T12:19:24.851Z,1005.3
2017-12-25T12:20:28.684Z,1005.3
2017-12-25T12:21:31.127Z,1005.3
2017-12-25T12:22:33.586Z,1005.3
2017-12-25T12:23:36.054Z,1005.2
2017-12-25T12:24:38.417Z,1005.3
2017-12-25T12:25:41.128Z,1005.3
2017-12-25T12:26:43.548Z,1005.3
2017-12-25T12:27:46.248Z,1005.2
2017-12-25T12:28:48.673Z,1005.2
2017-12-25T12:29:51.092Z,1005.3
2017-12-25T12:30:53.652Z,1005.3
2017-12-25T12:31:57.106Z,1005.2
2017-12-25T12:32:59.875Z,1005.3
2017-12-25T12:34:02.637Z,1005.3
2017-12-25T12:35:06.493Z,1005.2
2017-12-25T12:36:13.326Z,1005.1
2017-12-25T12:37:17.056Z,1005.2
2017-12-25T12:38:22.374Z,1005.2
2017-12-25T12:39:24.798Z,1005.2
2017-12-25T12:40:27.213Z,1005.1
2017-12-25T12:41:29.895Z,1005.1
2017-12-25T12:42:32.945Z,1005.1
2017-12-25T12:43:35.747Z,1005.1
2017-12-25T12:44:38.393Z,1005.1
2017-12-25T12:45:40.955Z,1005.1
2017-12-25T12:46:43.456Z,1005.1
2017-12-25T12:47:46.140Z,1005.1
2017-12-25T12:48:48.835Z,1005.1
2017-12-25T12:49:51.433Z,1005.1
2017-12-25T12:50:53.850Z,1005.1
2017-12-25T12:51:56.272Z,1005
2017-12-25T12:52:58.689Z,1005.1
2017-12-25T12:54:01.380Z,1005
2017-12-25T12:55:03.796Z,1005
2017-12-25T12:56:06.216Z,1005
2017-12-25T12:57:08.648Z,1005.1
2017-12-25T12:58:11.348Z,1005
2017-12-25T12:59:13.760Z,1005
2017-12-25T13:00:16.197Z,1005
2017-12-25T13:01:18.710Z,1005
2017-12-25T13:02:21.222Z,1004.9
2017-12-25T13:03:23.753Z,1005
2017-12-25T13:04:26.241Z,1005